createdAt,value
2018-07-05T00:01:32.693Z,4.13
2018-07-05T00:06:52.958Z,5.67
2018-07-05T00:12:13.180Z,5.80
2018-07-05T00:17:33.331Z,11.80
2018-07-05T00:22:53.417Z,6.27
2018-07-05T00:28:13.556Z,5.00
2018-07-05T00:33:33.827Z,6.00
2018-07-05T00:38:54.061Z,6.07
2018-07-05T00:44:14.458Z,7.17
2018-07-05T00:49:34.645Z,9.03
2018-07-05T00:54:55.142Z,7.00
2018-07-05T01:00:15.466Z,8.70
2018-07-05T01:05:35.862Z,8.60
2018-07-05T01:10:56.295Z,8.60
2018-07-05T01:16:16.485Z,15.63
2018-07-05T01:21:37.025Z,9.13
2018-07-05T01:26:57.448Z,7.37
2018-07-05T01:32:17.654Z,7.33
2018-07-05T01:37:37.925Z,7.93
2018-07-05T01:42:58.213Z,9.00
2018-07-05T01:48:19.065Z,9.17
2018-07-05T01:53:39.405Z,9.93
2018-07-05T01:58:59.824Z,9.07
2018-07-05T02:04:19.998Z,9.70
2018-07-05T02:09:40.272Z,7.30
2018-07-05T02:15:00.473Z,9.33
2018-07-05T02:20:20.675Z,8.80
2018-07-05T02:25:40.885Z,13.27
2018-07-05T02:31:01.289Z,10.20
2018-07-05T02:36:21.656Z,12.23
2018-07-05T02:41:41.753Z,9.30
2018-07-05T02:47:01.938Z,13.30
2018-07-05T02:52:22.145Z,12.80
2018-07-05T02:57:42.549Z,13.50
2018-07-05T03:03:02.882Z,17.80
2018-07-05T03:08:23.249Z,11.50
2018-07-05T03:13:43.455Z,14.70
2018-07-05T03:19:03.762Z,12.53
2018-07-05T03:24:24.174Z,10.57
2018-07-05T03:29:44.537Z,17.57
2018-07-05T03:35:04.897Z,12.70
2018-07-05T03:40:25.089Z,14.07
2018-07-05T03:45:45.385Z,16.73
2018-07-05T03:51:05.480Z,12.63
2018-07-05T03:56:25.624Z,12.77
2018-07-05T04:01:45.958Z,14.63
2018-07-05T04:07:06.216Z,17.10
2018-07-05T04:12:26.785Z,10.67
2018-07-05T04:17:47.229Z,12.50
2018-07-05T04:23:07.564Z,15.60
2018-07-05T04:28:27.740Z,11.77
2018-07-05T04:33:47.880Z,14.93
2018-07-05T04:39:08.120Z,11.53
2018-07-05T04:44:28.519Z,10.57
2018-07-05T04:49:48.809Z,14.40
2018-07-05T04:55:09.662Z,12.13
2018-07-05T05:00:30.629Z,12.50
2018-07-05T05:05:51.313Z,11.77
2018-07-05T05:11:12.380Z,10.77
2018-07-05T05:16:33.180Z,11.67
2018-07-05T05:21:53.682Z,12.30
2018-07-05T05:27:13.949Z,10.10
2018-07-05T05:32:34.057Z,10.90
2018-07-05T05:37:54.368Z,19.83
2018-07-05T05:43:14.705Z,10.70
2018-07-05T05:48:29.113Z,7.50
2018-07-05T05:53:49.089Z,5.43
2018-07-05T05:59:09.357Z,7.80
2018-07-05T06:04:29.706Z,7.97
2018-07-05T06:09:51.466Z,6.07
2018-07-05T06:15:11.813Z,6.70
2018-07-05T06:20:32.055Z,6.43
2018-07-05T06:25:52.222Z,6.10
2018-07-05T06:31:12.428Z,7.03
2018-07-05T06:36:32.573Z,10.30
2018-07-05T06:41:52.817Z,6.37
2018-07-05T06:47:13.161Z,6.70
2018-07-05T06:52:33.458Z,6.20
2018-07-05T06:57:53.926Z,6.40
2018-07-05T07:03:14.416Z,7.37
2018-07-05T07:08:34.574Z,5.17
2018-07-05T07:13:54.834Z,5.17
2018-07-05T07:19:15.269Z,5.93
2018-07-05T07:24:35.452Z,3.73
2018-07-05T07:29:55.605Z,2.73
2018-07-05T07:35:15.940Z,3.20
2018-07-05T07:40:36.213Z,6.27
2018-07-05T07:45:37.799Z,3.23
2018-07-05T07:50:39.272Z,5.00
2018-07-05T07:55:40.756Z,8.93
2018-07-05T08:00:42.240Z,4.80
2018-07-05T08:05:43.741Z,12.47
2018-07-05T08:10:45.217Z,6.60
2018-07-05T08:15:46.717Z,3.50
2018-07-05T08:20:48.311Z,4.00
2018-07-05T08:25:49.781Z,3.97
2018-07-05T08:30:51.285Z,3.60
2018-07-05T08:35:52.785Z,3.67
2018-07-05T08:40:54.282Z,3.47
2018-07-05T08:45:55.760Z,3.57
2018-07-05T08:50:57.701Z,5.97
2018-07-05T08:55:59.792Z,5.80
2018-07-05T09:01:01.264Z,3.73
2018-07-05T09:06:02.741Z,3.80
2018-07-05T09:11:05.061Z,3.53
2018-07-05T09:16:06.625Z,3.47
2018-07-05T09:21:08.109Z,3.40
2018-07-05T09:26:09.601Z,4.80
2018-07-05T09:31:11.114Z,3.87
2018-07-05T09:36:12.590Z,7.03
2018-07-05T09:41:14.065Z,3.93
2018-07-05T09:46:16.001Z,3.40
2018-07-05T09:51:17.481Z,3.53
2018-07-05T09:56:19.010Z,5.60
2018-07-05T10:01:20.496Z,7.17
2018-07-05T10:06:21.993Z,6.40
2018-07-05T10:11:23.469Z,4.03
2018-07-05T10:16:24.960Z,5.97
2018-07-05T10:21:26.456Z,4.30
2018-07-05T10:26:27.928Z,8.93
2018-07-05T10:31:48.132Z,4.90
2018-07-05T10:36:49.622Z,5.97
2018-07-05T10:42:09.798Z,6.40
2018-07-05T10:47:30.085Z,4.63
2018-07-05T10:52:50.304Z,6.60
2018-07-05T10:58:10.383Z,5.70
2018-07-05T11:03:30.504Z,6.97
2018-07-05T11:08:45.056Z,4.27
2018-07-05T11:14:05.233Z,4.30
2018-07-05T11:19:25.684Z,5.17
2018-07-05T11:24:45.876Z,5.27
2018-07-05T11:30:06.744Z,4.37
2018-07-05T11:35:27.269Z,4.20
2018-07-05T11:40:47.674Z,4.07
2018-07-05T11:46:07.981Z,6.13
2018-07-05T11:51:28.385Z,7.13
2018-07-05T11:56:48.810Z,4.23
2018-07-05T12:02:09.119Z,7.10
2018-07-05T12:07:29.445Z,4.73
2018-07-05T12:12:49.908Z,6.80
2018-07-05T12:18:10.306Z,4.20
2018-07-05T12:23:30.444Z,4.37
2018-07-05T12:28:50.533Z,3.43
2018-07-05T12:34:11.121Z,5.83
2018-07-05T12:39:31.597Z,3.70
2018-07-05T12:44:51.858Z,5.93
2018-07-05T12:50:12.127Z,3.20
2018-07-05T12:55:32.605Z,4.60
2018-07-05T13:00:52.872Z,6.53
2018-07-05T13:06:13.049Z,2.90
2018-07-05T13:11:33.265Z,3.00
2018-07-05T13:16:53.771Z,2.70
2018-07-05T13:22:14.152Z,6.13
2018-07-05T13:27:34.381Z,2.70
2018-07-05T13:32:54.608Z,7.83
2018-07-05T13:38:14.881Z,3.30
2018-07-05T13:43:35.109Z,2.53
2018-07-05T13:48:55.541Z,3.37
2018-07-05T13:54:15.987Z,2.97
2018-07-05T13:59:36.218Z,2.43
2018-07-05T14:04:56.568Z,6.47
2018-07-05T14:10:16.742Z,3.20
2018-07-05T14:15:36.992Z,3.47
2018-07-05T14:20:57.224Z,2.00
2018-07-05T14:26:17.187Z,3.07
2018-07-05T14:31:37.691Z,9.87
2018-07-05T14:36:57.804Z,5.00
2018-07-05T14:42:18.048Z,1.63
2018-07-05T14:47:38.244Z,2.10
2018-07-05T14:52:58.375Z,5.50
2018-07-05T14:58:19.841Z,2.17
2018-07-05T15:03:42.049Z,1.43
2018-07-05T15:09:02.456Z,3.53
2018-07-05T15:14:22.706Z,1.70
2018-07-05T15:19:42.993Z,5.37
2018-07-05T15:25:03.307Z,1.87
2018-07-05T15:30:23.664Z,1.90
2018-07-05T15:35:43.809Z,1.97
2018-07-05T15:41:04.233Z,2.00
2018-07-05T15:46:24.537Z,2.73
2018-07-05T15:51:45.055Z,4.03
2018-07-05T15:57:05.982Z,2.80
2018-07-05T16:02:26.845Z,3.00
2018-07-05T16:07:47.154Z,2.27
2018-07-05T16:13:07.446Z,2.37
2018-07-05T16:18:27.865Z,4.40
2018-07-05T16:23:48.073Z,2.93
2018-07-05T16:29:08.347Z,2.80
2018-07-05T16:34:28.792Z,3.70
2018-07-05T16:39:48.705Z,3.83
2018-07-05T16:45:08.947Z,3.10
2018-07-05T16:50:29.181Z,2.93
2018-07-05T16:55:49.413Z,3.90
2018-07-05T17:01:09.654Z,2.90
2018-07-05T17:06:29.829Z,6.50
2018-07-05T17:11:50.179Z,3.40
2018-07-05T17:17:10.330Z,2.97
2018-07-05T17:22:30.543Z,3.37
2018-07-05T17:27:50.827Z,5.00
2018-07-05T17:33:10.991Z,3.60
2018-07-05T17:38:31.480Z,4.50
2018-07-05T17:43:51.776Z,4.97
2018-07-05T17:49:11.902Z,7.13
2018-07-05T17:54:32.425Z,10.80
2018-07-05T17:59:52.616Z,4.43
2018-07-05T18:05:12.960Z,4.93
2018-07-05T18:10:33.158Z,3.47
2018-07-05T18:15:53.414Z,2.97
2018-07-05T18:21:13.740Z,2.93
2018-07-05T18:26:33.997Z,7.40
2018-07-05T18:31:54.403Z,3.20
2018-07-05T18:37:14.852Z,3.23
2018-07-05T18:42:35.514Z,3.47
2018-07-05T18:47:55.748Z,2.87
2018-07-05T18:53:16.001Z,5.00
2018-07-05T18:58:36.929Z,3.13
2018-07-05T19:03:57.667Z,2.90
2018-07-05T19:09:18.017Z,2.00
2018-07-05T19:14:38.494Z,3.63
2018-07-05T19:19:58.917Z,3.00
2018-07-05T19:25:19.249Z,1.83
2018-07-05T19:30:39.483Z,1.60
2018-07-05T19:35:59.822Z,1.50
2018-07-05T19:41:20.840Z,3.07
2018-07-05T19:46:41.125Z,1.83
2018-07-05T19:52:01.590Z,4.33
2018-07-05T19:57:21.808Z,2.03
2018-07-05T20:02:42.092Z,2.93
2018-07-05T20:08:02.773Z,1.13
2018-07-05T20:13:23.129Z,1.30
2018-07-05T20:18:43.533Z,1.40
2018-07-05T20:24:03.742Z,1.87
2018-07-05T20:29:23.794Z,1.53
2018-07-05T20:34:48.154Z,2.10
2018-07-05T20:40:08.365Z,1.93
2018-07-05T20:45:29.141Z,1.30
2018-07-05T20:50:49.382Z,1.57
2018-07-05T20:56:09.789Z,1.90
2018-07-05T21:01:30.030Z,2.13
2018-07-05T21:06:50.273Z,5.03
2018-07-05T21:12:10.332Z,7.53
2018-07-05T21:17:24.808Z,2.37
2018-07-05T21:22:45.183Z,2.20
2018-07-05T21:28:05.325Z,2.60
2018-07-05T21:33:25.293Z,3.43
2018-07-05T21:38:45.688Z,1.93
2018-07-05T21:44:05.800Z,2.67
2018-07-05T21:49:26.736Z,2.70
2018-07-05T21:54:46.920Z,5.57
2018-07-05T22:00:07.199Z,3.97
2018-07-05T22:05:27.485Z,3.47
2018-07-05T22:10:47.702Z,3.97
2018-07-05T22:16:08.014Z,3.63
2018-07-05T22:21:28.293Z,4.53
2018-07-05T22:26:48.564Z,8.13
2018-07-05T22:32:08.853Z,8.10
2018-07-05T22:37:29.165Z,4.97
2018-07-05T22:42:49.518Z,3.03
2018-07-05T22:48:09.694Z,3.30
2018-07-05T22:53:29.896Z,2.97
2018-07-05T22:58:50.131Z,3.40
2018-07-05T23:04:10.554Z,3.30
2018-07-05T23:09:30.804Z,9.80
2018-07-05T23:14:50.933Z,4.40
2018-07-05T23:20:11.053Z,4.20
2018-07-05T23:25:31.417Z,3.73
2018-07-05T23:30:51.500Z,6.17
2018-07-05T23:36:11.645Z,6.17
2018-07-05T23:41:31.849Z,7.00
2018-07-05T23:46:52.265Z,7.07
2018-07-05T23:52:12.554Z,7.63
2018-07-05T23:57:32.928Z,7.77
